createdAt,value
2018-07-17T00:01:14.889Z,94.84
2018-07-17T00:03:43.485Z,94.85
2018-07-17T00:06:11.830Z,95.64
2018-07-17T00:08:40.184Z,94.91
2018-07-17T00:11:09.513Z,95.57
2018-07-17T00:13:38.920Z,95.53
2018-07-17T00:16:09.322Z,95.39
2018-07-17T00:18:39.570Z,95.67
2018-07-17T00:21:10.111Z,95.97
2018-07-17T00:23:39.603Z,96.03
2018-07-17T00:26:10.190Z,96.15
2018-07-17T00:28:39.618Z,96.61
2018-07-17T00:31:09.493Z,96.72
2018-07-17T00:33:39.420Z,96.48
2018-07-17T00:36:09.716Z,97.36
2018-07-17T00:38:38.982Z,97.09
2018-07-17T00:41:08.045Z,96.87
2018-07-17T00:43:38.092Z,97.09
2018-07-17T00:46:08.041Z,97.59
2018-07-17T00:48:37.940Z,98.25
2018-07-17T00:51:06.990Z,98.07
2018-07-17T00:53:37.052Z,97.86
2018-07-17T00:56:06.218Z,98.69
2018-07-17T00:58:35.444Z,99.20
2018-07-17T01:01:04.080Z,98.50
2018-07-17T01:03:38.700Z,98.54
2018-07-17T01:06:13.924Z,98.58
2018-07-17T01:08:47.772Z,98.63
2018-07-17T01:11:21.422Z,99.68
2018-07-17T01:13:55.507Z,98.90
2018-07-17T01:16:23.850Z,99.99
2018-07-17T01:18:52.217Z,100.00
2018-07-17T01:21:20.609Z,99.93
2018-07-17T01:23:49.857Z,100.00
2018-07-17T01:26:19.181Z,100.00
2018-07-17T01:28:48.181Z,100.00
2018-07-17T01:31:16.533Z,100.00
2018-07-17T01:33:44.881Z,100.00
2018-07-17T01:36:13.917Z,100.00
2018-07-17T01:38:43.329Z,100.00
2018-07-17T01:41:11.674Z,100.00
2018-07-17T01:43:40.033Z,100.00
2018-07-17T01:46:09.281Z,100.00
2018-07-17T01:48:38.019Z,100.00
2018-07-17T01:51:07.007Z,100.00
2018-07-17T01:53:35.338Z,100.00
2018-07-17T01:56:03.722Z,99.70
2018-07-17T01:58:32.068Z,99.77
2018-07-17T02:01:00.528Z,100.00
2018-07-17T02:03:28.865Z,99.94
2018-07-17T02:05:57.234Z,100.00
2018-07-17T02:08:25.573Z,100.00
2018-07-17T02:10:53.971Z,99.65
2018-07-17T02:13:22.321Z,99.37
2018-07-17T02:15:50.688Z,98.87
2018-07-17T02:18:20.046Z,98.66
2018-07-17T02:20:49.309Z,98.89
2018-07-17T02:23:18.650Z,98.93
2018-07-17T02:25:48.263Z,98.88
2018-07-17T02:28:16.653Z,98.42
2018-07-17T02:30:44.993Z,98.74
2018-07-17T02:33:13.365Z,98.17
2018-07-17T02:35:41.720Z,98.66
2018-07-17T02:38:10.060Z,98.45
2018-07-17T02:40:39.155Z,97.91
2018-07-17T02:43:08.136Z,97.57
2018-07-17T02:45:37.185Z,97.31
2018-07-17T02:48:05.572Z,97.27
2018-07-17T02:50:33.940Z,96.51
2018-07-17T02:53:02.296Z,96.43
2018-07-17T02:55:30.657Z,95.93
2018-07-17T02:57:58.993Z,96.24
2018-07-17T03:00:27.369Z,95.91
2018-07-17T03:02:55.869Z,96.15
2018-07-17T03:05:24.233Z,95.78
2018-07-17T03:07:52.581Z,95.71
2018-07-17T03:10:20.929Z,95.83
2018-07-17T03:12:49.281Z,95.93
2018-07-17T03:15:18.125Z,96.25
2018-07-17T03:17:46.475Z,96.75
2018-07-17T03:20:14.826Z,97.33
2018-07-17T03:22:43.183Z,98.56
2018-07-17T03:25:11.518Z,98.46
2018-07-17T03:27:39.866Z,98.56
2018-07-17T03:30:08.932Z,94.97
2018-07-17T03:32:38.882Z,95.45
2018-07-17T03:35:08.017Z,96.00
2018-07-17T03:37:37.181Z,95.44
2018-07-17T03:40:05.749Z,96.15
2018-07-17T03:42:34.122Z,97.01
2018-07-17T03:45:02.537Z,96.08
2018-07-17T03:47:30.879Z,95.53
2018-07-17T03:49:59.234Z,95.55
2018-07-17T03:52:27.578Z,96.69
2018-07-17T03:54:55.987Z,95.53
2018-07-17T03:57:24.327Z,96.46
2018-07-17T03:59:52.659Z,96.78
2018-07-17T04:02:21.005Z,97.09
2018-07-17T04:04:49.391Z,96.67
2018-07-17T04:07:18.382Z,96.79
2018-07-17T04:09:47.795Z,95.91
2018-07-17T04:12:17.273Z,96.81
2018-07-17T04:14:46.799Z,96.56
2018-07-17T04:17:15.834Z,95.28
2018-07-17T04:19:44.169Z,95.59
2018-07-17T04:22:12.544Z,98.28
2018-07-17T04:24:40.901Z,96.19
2018-07-17T04:27:10.251Z,97.02
2018-07-17T04:29:39.870Z,95.53
2018-07-17T04:32:09.004Z,95.67
2018-07-17T04:34:38.378Z,95.44
2018-07-17T04:37:07.287Z,95.50
2018-07-17T04:39:35.649Z,95.13
2018-07-17T04:42:04.018Z,93.23
2018-07-17T04:44:32.366Z,94.55
2018-07-17T04:47:00.727Z,95.47
2018-07-17T04:49:29.089Z,94.92
2018-07-17T04:51:58.352Z,94.20
2018-07-17T04:54:26.688Z,95.06
2018-07-17T04:56:55.038Z,95.88
2018-07-17T04:59:23.401Z,95.74
2018-07-17T05:01:51.795Z,93.66
2018-07-17T05:04:20.149Z,91.57
2018-07-17T05:06:48.977Z,93.15
2018-07-17T05:09:18.344Z,91.18
2018-07-17T05:11:47.670Z,89.78
2018-07-17T05:14:17.194Z,91.67
2018-07-17T05:16:45.540Z,90.02
2018-07-17T05:19:13.888Z,89.13
2018-07-17T05:21:42.238Z,95.97
2018-07-17T05:24:10.582Z,91.32
2018-07-17T05:26:40.294Z,90.98
2018-07-17T05:29:09.827Z,89.80
2018-07-17T05:31:38.224Z,87.74
2018-07-17T05:34:06.657Z,87.76
2018-07-17T05:36:35.022Z,87.36
2018-07-17T05:39:03.889Z,84.30
2018-07-17T05:41:32.277Z,82.62
2018-07-17T05:44:00.610Z,82.60
2018-07-17T05:46:29.055Z,81.72
2018-07-17T05:48:57.438Z,80.45
2018-07-17T05:51:25.822Z,79.95
2018-07-17T05:53:54.186Z,80.21
2018-07-17T05:56:22.553Z,78.70
2018-07-17T05:58:51.173Z,79.45
2018-07-17T06:01:19.999Z,77.97
2018-07-17T06:03:49.359Z,76.52
2018-07-17T06:06:18.495Z,78.01
2018-07-17T06:08:47.905Z,76.92
2018-07-17T06:11:16.918Z,77.64
2018-07-17T06:13:46.024Z,76.00
2018-07-17T06:16:14.670Z,75.65
2018-07-17T06:18:43.042Z,77.64
2018-07-17T06:21:11.398Z,77.69
2018-07-17T06:23:40.341Z,75.49
2018-07-17T06:26:09.786Z,74.35
2018-07-17T06:28:39.365Z,73.52
2018-07-17T06:31:07.725Z,74.79
2018-07-17T06:33:36.065Z,75.93
2018-07-17T06:36:04.398Z,74.37
2018-07-17T06:38:32.807Z,72.50
2018-07-17T06:41:01.201Z,73.41
2018-07-17T06:43:29.572Z,70.78
2018-07-17T06:45:57.974Z,71.90
2018-07-17T06:48:26.333Z,70.79
2018-07-17T06:50:54.736Z,71.12
2018-07-17T06:53:23.149Z,69.60
2018-07-17T06:55:51.519Z,69.33
2018-07-17T06:58:20.106Z,69.32
2018-07-17T07:00:49.751Z,67.77
2018-07-17T07:03:18.821Z,67.38
2018-07-17T07:05:48.147Z,66.65
2018-07-17T07:08:16.566Z,66.36
2018-07-17T07:10:44.986Z,66.33
2018-07-17T07:13:13.332Z,65.31
2018-07-17T07:15:41.678Z,64.67
2018-07-17T07:18:10.053Z,66.70
2018-07-17T07:20:39.074Z,66.45
2018-07-17T07:23:07.771Z,64.97
2018-07-17T07:25:36.125Z,63.98
2018-07-17T07:28:04.543Z,65.05
2018-07-17T07:30:32.966Z,66.24
2018-07-17T07:33:01.317Z,65.69
2018-07-17T07:35:29.672Z,62.50
2018-07-17T07:37:58.023Z,65.33
2018-07-17T07:40:26.378Z,65.38
2018-07-17T07:42:54.922Z,63.18
2018-07-17T07:45:23.137Z,62.89
2018-07-17T07:47:51.490Z,61.70
2018-07-17T07:50:19.850Z,62.89
2018-07-17T07:52:49.638Z,63.14
2018-07-17T07:55:19.114Z,62.92
2018-07-17T07:57:49.097Z,60.15
2018-07-17T08:00:18.187Z,60.63
2018-07-17T08:02:47.581Z,58.83
2018-07-17T08:05:17.046Z,59.64
2018-07-17T08:07:45.385Z,57.81
2018-07-17T08:10:13.805Z,59.26
2018-07-17T08:12:42.180Z,59.10
2018-07-17T08:15:10.561Z,57.57
2018-07-17T08:17:39.029Z,59.36
2018-07-17T08:20:07.941Z,58.04
2018-07-17T08:22:36.318Z,55.94
2018-07-17T08:25:04.777Z,57.52
2018-07-17T08:27:33.234Z,56.71
2018-07-17T08:30:01.619Z,55.47
2018-07-17T08:32:29.980Z,57.47
2018-07-17T08:34:58.661Z,56.21
2018-07-17T08:37:27.047Z,56.66
2018-07-17T08:39:55.422Z,56.80
2018-07-17T08:42:23.777Z,55.80
2018-07-17T08:44:52.174Z,52.91
2018-07-17T08:47:20.519Z,51.54
2018-07-17T08:49:48.934Z,51.23
2018-07-17T08:52:18.281Z,51.26
2018-07-17T08:54:47.902Z,52.22
2018-07-17T08:57:17.753Z,52.63
2018-07-17T08:59:47.737Z,51.54
2018-07-17T09:02:16.942Z,52.38
2018-07-17T09:04:45.997Z,50.49
2018-07-17T09:07:14.355Z,52.17
2018-07-17T09:09:42.714Z,51.81
2018-07-17T09:12:11.102Z,50.99
2018-07-17T09:14:43.261Z,49.11
2018-07-17T09:17:11.750Z,50.46
2018-07-17T09:19:40.115Z,49.42
2018-07-17T09:22:09.484Z,49.06
2018-07-17T09:24:38.380Z,49.95
2018-07-17T09:27:06.815Z,47.36
2018-07-17T09:29:35.169Z,46.02
2018-07-17T09:32:03.526Z,46.38
2018-07-17T09:34:31.891Z,46.39
2018-07-17T09:37:00.241Z,48.10
2018-07-17T09:39:28.597Z,47.89
2018-07-17T09:41:56.945Z,48.96
2018-07-17T09:44:25.344Z,47.88
2018-07-17T09:46:53.686Z,48.16
2018-07-17T09:49:22.122Z,43.95
2018-07-17T09:51:50.672Z,44.94
2018-07-17T09:54:19.113Z,44.24
2018-07-17T09:56:48.542Z,44.09
2018-07-17T09:59:17.518Z,45.13
2018-07-17T10:01:51.094Z,44.61
2018-07-17T10:04:19.447Z,44.14
2018-07-17T10:06:48.755Z,43.51
2018-07-17T10:09:18.034Z,43.97
2018-07-17T10:11:47.138Z,42.56
2018-07-17T10:14:15.473Z,44.67
2018-07-17T10:16:43.816Z,43.97
2018-07-17T10:19:12.156Z,45.05
2018-07-17T10:21:40.502Z,44.07
2018-07-17T10:24:10.181Z,42.57
2018-07-17T10:26:39.302Z,43.54
2018-07-17T10:29:08.522Z,43.52
2018-07-17T10:31:37.332Z,43.58
2018-07-17T10:34:05.765Z,44.66
2018-07-17T10:36:34.134Z,43.74
2018-07-17T10:39:02.474Z,43.48
2018-07-17T10:41:30.838Z,43.19
2018-07-17T10:43:59.183Z,42.51
2018-07-17T10:46:27.541Z,43.49
2018-07-17T10:48:55.881Z,43.71
2018-07-17T10:51:24.248Z,42.90
2018-07-17T10:53:52.590Z,43.52
2018-07-17T10:56:20.949Z,41.83
2018-07-17T10:58:49.298Z,42.29
2018-07-17T11:01:18.511Z,42.38
2018-07-17T11:03:47.947Z,44.15
2018-07-17T11:06:18.465Z,42.13
2018-07-17T11:08:47.718Z,41.89
2018-07-17T11:11:17.030Z,42.55
2018-07-17T11:13:46.174Z,41.65
2018-07-17T11:16:14.954Z,42.32
2018-07-17T11:18:43.288Z,42.09
2018-07-17T11:21:11.626Z,40.51
2018-07-17T11:23:40.034Z,42.22
2018-07-17T11:26:08.447Z,40.15
2018-07-17T11:28:37.427Z,40.79
2018-07-17T11:31:05.761Z,40.04
2018-07-17T11:33:34.105Z,39.11
2018-07-17T11:36:02.433Z,40.59
2018-07-17T11:38:30.794Z,40.55
2018-07-17T11:40:59.137Z,38.44
2018-07-17T11:43:27.598Z,37.99
2018-07-17T11:45:55.937Z,39.59
2018-07-17T11:48:24.276Z,38.10
2018-07-17T11:50:52.658Z,40.08
2018-07-17T11:53:21.065Z,38.92
2018-07-17T11:55:49.437Z,39.42
2018-07-17T11:58:18.743Z,40.38
2018-07-17T12:00:48.099Z,38.96
2018-07-17T12:03:16.513Z,38.21
2018-07-17T12:05:44.902Z,41.06
2018-07-17T12:08:13.295Z,40.19
2018-07-17T12:10:41.639Z,37.66
2018-07-17T12:13:10.075Z,37.72
2018-07-17T12:15:38.476Z,37.84
2018-07-17T12:18:06.918Z,38.86
2018-07-17T12:20:35.584Z,37.24
2018-07-17T12:23:03.749Z,39.74
2018-07-17T12:25:32.110Z,37.48
2018-07-17T12:28:00.489Z,37.03
2018-07-17T12:30:28.851Z,37.19
2018-07-17T12:32:57.336Z,36.70
2018-07-17T12:35:25.721Z,35.95
2018-07-17T12:37:54.093Z,35.68
2018-07-17T12:40:22.426Z,36.34
2018-07-17T12:42:50.761Z,35.44
2018-07-17T12:45:19.106Z,36.22
2018-07-17T12:47:48.148Z,35.47
2018-07-17T12:50:16.502Z,36.42
2018-07-17T12:52:44.857Z,35.07
2018-07-17T12:55:13.225Z,35.11
2018-07-17T12:57:41.577Z,37.33
2018-07-17T13:00:10.537Z,36.22
2018-07-17T13:02:40.488Z,36.78
2018-07-17T13:05:09.737Z,36.47
2018-07-17T13:07:38.589Z,37.61
2018-07-17T13:10:07.560Z,38.30
2018-07-17T13:12:36.121Z,38.23
2018-07-17T13:15:05.406Z,36.96
2018-07-17T13:17:34.045Z,38.82
2018-07-17T13:20:02.337Z,40.07
2018-07-17T13:22:30.681Z,37.62
2018-07-17T13:24:59.054Z,41.33
2018-07-17T13:27:27.389Z,39.44
2018-07-17T13:29:55.799Z,39.41
2018-07-17T13:32:24.155Z,38.72
2018-07-17T13:34:52.508Z,37.70
2018-07-17T13:37:20.849Z,36.96
2018-07-17T13:39:49.177Z,38.84
2018-07-17T13:42:18.239Z,38.25
2018-07-17T13:44:46.656Z,37.99
2018-07-17T13:47:14.993Z,36.55
2018-07-17T13:49:43.328Z,37.85
2018-07-17T13:52:11.693Z,37.62
2018-07-17T13:54:41.423Z,38.54
2018-07-17T13:57:09.777Z,40.52
2018-07-17T13:59:38.603Z,37.75
2018-07-17T14:02:07.542Z,36.14
2018-07-17T14:04:36.289Z,36.67
2018-07-17T14:07:04.629Z,37.62
2018-07-17T14:09:32.978Z,35.47
2018-07-17T14:12:01.326Z,37.97
2018-07-17T14:14:29.677Z,37.77
2018-07-17T14:16:58.046Z,37.70
2018-07-17T14:19:26.409Z,38.28
2018-07-17T14:21:54.754Z,38.57
2018-07-17T14:24:23.112Z,35.59
2018-07-17T14:26:51.458Z,38.31
2018-07-17T14:29:19.815Z,36.40
2018-07-17T14:31:48.912Z,35.76
2018-07-17T14:34:17.810Z,37.21
2018-07-17T14:36:48.674Z,34.81
2018-07-17T14:39:18.066Z,35.13
2018-07-17T14:41:46.486Z,40.83
2018-07-17T14:44:14.818Z,41.07
2018-07-17T14:46:43.213Z,42.67
2018-07-17T14:49:11.561Z,43.75
2018-07-17T14:51:41.301Z,46.38
2018-07-17T14:54:10.731Z,44.61
2018-07-17T14:56:40.125Z,47.40
2018-07-17T14:59:09.580Z,47.97
2018-07-17T15:01:38.539Z,48.79
2018-07-17T15:04:07.900Z,47.54
2018-07-17T15:06:36.250Z,49.18
2018-07-17T15:09:06.050Z,49.39
2018-07-17T15:11:34.387Z,48.00
2018-07-17T15:14:02.741Z,49.95
2018-07-17T15:16:31.077Z,45.73
2018-07-17T15:18:59.458Z,43.34
2018-07-17T15:21:27.793Z,42.63
2018-07-17T15:23:56.130Z,42.45
2018-07-17T15:26:24.466Z,41.95
2018-07-17T15:28:52.809Z,42.51
2018-07-17T15:31:21.149Z,42.46
2018-07-17T15:33:49.500Z,41.09
2018-07-17T15:36:19.226Z,43.37
2018-07-17T15:38:48.106Z,40.61
2018-07-17T15:41:16.546Z,41.53
2018-07-17T15:43:44.889Z,39.92
2018-07-17T15:46:13.276Z,41.28
2018-07-17T15:48:41.754Z,43.62
2018-07-17T15:51:11.016Z,44.46
2018-07-17T15:53:40.551Z,46.08
2018-07-17T15:56:09.829Z,48.31
2018-07-17T15:58:38.559Z,45.49
2018-07-17T16:01:07.634Z,45.06
2018-07-17T16:03:36.023Z,45.63
2018-07-17T16:06:04.417Z,46.40
2018-07-17T16:08:32.793Z,47.83
2018-07-17T16:11:01.134Z,48.92
2018-07-17T16:13:29.591Z,49.92
2018-07-17T16:15:57.891Z,51.17
2018-07-17T16:18:26.218Z,54.10
2018-07-17T16:20:54.554Z,53.48
2018-07-17T16:23:22.893Z,55.67
2018-07-17T16:25:51.251Z,55.19
2018-07-17T16:28:19.592Z,55.93
2018-07-17T16:30:48.894Z,56.30
2018-07-17T16:33:18.585Z,57.44
2018-07-17T16:35:48.349Z,58.33
2018-07-17T16:38:17.730Z,58.83
2018-07-17T16:40:47.170Z,57.94
2018-07-17T16:43:15.509Z,60.74
2018-07-17T16:45:43.846Z,62.15
2018-07-17T16:48:12.258Z,60.18
2018-07-17T16:50:40.633Z,60.23
2018-07-17T16:53:09.945Z,59.50
2018-07-17T16:55:38.688Z,60.41
2018-07-17T16:58:08.760Z,59.70
2018-07-17T17:00:37.817Z,61.68
2018-07-17T17:03:06.215Z,60.34
2018-07-17T17:05:34.737Z,60.11
2018-07-17T17:08:03.242Z,58.85
2018-07-17T17:10:32.609Z,59.11
2018-07-17T17:13:00.979Z,59.60
2018-07-17T17:15:29.372Z,59.85
2018-07-17T17:17:57.730Z,59.66
2018-07-17T17:20:26.110Z,60.13
2018-07-17T17:22:54.462Z,60.21
2018-07-17T17:25:22.843Z,59.28
2018-07-17T17:27:51.192Z,59.52
2018-07-17T17:30:19.580Z,58.80
2018-07-17T17:32:49.092Z,58.38
2018-07-17T17:35:18.133Z,59.42
2018-07-17T17:37:46.484Z,59.67
2018-07-17T17:40:14.831Z,58.56
2018-07-17T17:42:43.182Z,58.98
2018-07-17T17:45:11.533Z,60.13
2018-07-17T17:47:40.027Z,61.44
2018-07-17T17:50:08.844Z,61.85
2018-07-17T17:52:37.641Z,64.00
2018-07-17T17:55:05.998Z,60.55
2018-07-17T17:57:34.376Z,61.45
2018-07-17T18:00:02.797Z,63.29
2018-07-17T18:02:31.150Z,62.96
2018-07-17T18:04:59.502Z,62.51
2018-07-17T18:07:27.921Z,62.37
2018-07-17T18:09:56.278Z,63.52
2018-07-17T18:12:24.645Z,64.65
2018-07-17T18:14:53.012Z,63.98
2018-07-17T18:17:21.407Z,63.18
2018-07-17T18:19:50.121Z,63.51
2018-07-17T18:22:18.512Z,67.01
2018-07-17T18:24:47.510Z,64.32
2018-07-17T18:27:16.486Z,64.48
2018-07-17T18:29:44.853Z,65.58
2018-07-17T18:32:13.273Z,67.38
2018-07-17T18:34:41.674Z,67.92
2018-07-17T18:37:11.286Z,65.16
2018-07-17T18:39:40.915Z,66.05
2018-07-17T18:42:11.023Z,66.80
2018-07-17T18:44:40.725Z,66.72
2018-07-17T18:47:10.720Z,67.89
2018-07-17T18:49:40.399Z,68.00
2018-07-17T18:52:10.472Z,68.00
2018-07-17T18:54:40.113Z,67.32
2018-07-17T18:57:09.012Z,69.12
2018-07-17T18:59:38.796Z,68.77
2018-07-17T19:02:08.913Z,69.47
2018-07-17T19:04:38.815Z,68.52
2018-07-17T19:07:08.781Z,69.05
2018-07-17T19:09:38.587Z,70.10
2018-07-17T19:12:08.835Z,69.32
2018-07-17T19:15:40.846Z,68.86
2018-07-17T19:18:09.662Z,69.65
2018-07-17T19:20:39.236Z,70.46
2018-07-17T19:23:09.229Z,71.53
2018-07-17T19:25:39.442Z,71.93
2018-07-17T19:28:09.313Z,71.72
2018-07-17T19:30:38.916Z,72.08
2018-07-17T19:33:08.882Z,72.97
2018-07-17T19:35:38.363Z,72.54
2018-07-17T19:38:09.814Z,73.30
2018-07-17T19:40:39.780Z,72.78
2018-07-17T19:43:09.500Z,74.09
2018-07-17T19:45:40.759Z,73.41
2018-07-17T19:48:10.195Z,74.38
2018-07-17T19:50:39.751Z,74.54
2018-07-17T19:53:09.265Z,75.17
2018-07-17T19:55:39.159Z,75.78
2018-07-17T19:58:08.780Z,75.70
2018-07-17T20:00:38.906Z,75.11
2018-07-17T20:03:08.871Z,76.04
2018-07-17T20:05:38.806Z,75.14
2018-07-17T20:08:08.728Z,75.16
2018-07-17T20:10:38.306Z,74.72
2018-07-17T20:13:07.681Z,74.30
2018-07-17T20:15:36.403Z,75.18
2018-07-17T20:18:05.099Z,74.68
2018-07-17T20:20:34.144Z,75.90
2018-07-17T20:23:02.847Z,75.37
2018-07-17T20:25:31.575Z,74.34
2018-07-17T20:28:00.297Z,74.58
2018-07-17T20:30:28.973Z,75.18
2018-07-17T20:32:57.731Z,75.12
2018-07-17T20:35:26.407Z,74.93
2018-07-17T20:37:55.269Z,75.38
2018-07-17T20:40:23.874Z,74.21
2018-07-17T20:42:52.414Z,75.87
2018-07-17T20:45:20.958Z,74.69
2018-07-17T20:47:49.749Z,76.03
2018-07-17T20:50:19.220Z,76.16
2018-07-17T20:52:48.580Z,76.48
2018-07-17T20:55:18.125Z,76.54
2018-07-17T20:57:47.531Z,76.89
2018-07-17T21:00:16.678Z,76.59
2018-07-17T21:02:45.676Z,76.44
2018-07-17T21:05:14.232Z,76.79
2018-07-17T21:07:42.697Z,75.50
2018-07-17T21:10:11.057Z,76.21
2018-07-17T21:12:40.453Z,77.04
2018-07-17T21:15:10.420Z,75.95
2018-07-17T21:17:39.697Z,76.70
2018-07-17T21:20:09.382Z,77.11
2018-07-17T21:22:38.829Z,76.57
2018-07-17T21:25:07.768Z,77.02
2018-07-17T21:27:36.109Z,75.48
2018-07-17T21:30:04.697Z,76.18
2018-07-17T21:32:33.054Z,76.55
2018-07-17T21:35:01.396Z,77.09
2018-07-17T21:37:29.765Z,77.29
2018-07-17T21:39:58.500Z,77.06
2018-07-17T21:42:26.838Z,76.66
2018-07-17T21:44:55.330Z,77.01
2018-07-17T21:47:23.677Z,77.33
2018-07-17T21:49:52.013Z,76.89
2018-07-17T21:52:20.341Z,77.12
2018-07-17T21:54:48.882Z,76.35
2018-07-17T21:57:18.398Z,78.26
2018-07-17T21:59:47.475Z,78.04
2018-07-17T22:02:16.973Z,76.74
2018-07-17T22:04:45.322Z,77.47
2018-07-17T22:07:13.665Z,76.84
2018-07-17T22:09:42.002Z,76.23
2018-07-17T22:12:11.004Z,76.26
2018-07-17T22:14:40.438Z,76.97
2018-07-17T22:17:10.778Z,76.85
2018-07-17T22:19:40.086Z,76.77
2018-07-17T22:22:08.805Z,76.99
2018-07-17T22:24:37.755Z,76.80
2018-07-17T22:27:06.122Z,76.87
2018-07-17T22:29:34.478Z,77.20
2018-07-17T22:32:02.830Z,77.96
2018-07-17T22:34:31.202Z,77.99
2018-07-17T22:36:59.536Z,78.79
2018-07-17T22:39:28.522Z,78.15
2018-07-17T22:41:56.856Z,78.30
2018-07-17T22:44:25.189Z,77.14
2018-07-17T22:46:53.535Z,77.99
2018-07-17T22:49:22.929Z,77.55
2018-07-17T22:51:53.004Z,77.94
2018-07-17T22:54:21.352Z,78.06
2018-07-17T22:56:49.738Z,77.16
2018-07-17T22:59:19.741Z,76.79
2018-07-17T23:01:49.213Z,76.38
2018-07-17T23:04:18.597Z,76.92
2018-07-17T23:06:48.317Z,77.25
2018-07-17T23:09:17.430Z,76.78
2018-07-17T23:11:46.861Z,77.18
2018-07-17T23:14:16.312Z,78.03
2018-07-17T23:16:44.658Z,76.24
2018-07-17T23:19:14.011Z,77.40
2018-07-17T23:21:42.354Z,77.75
2018-07-17T23:24:10.722Z,77.79
2018-07-17T23:26:39.848Z,79.00
2018-07-17T23:29:08.962Z,79.37
2018-07-17T23:31:37.349Z,78.43
2018-07-17T23:34:05.709Z,78.32
2018-07-17T23:36:34.054Z,78.37
2018-07-17T23:39:02.466Z,78.33
2018-07-17T23:41:30.927Z,77.96
2018-07-17T23:43:59.329Z,77.86
2018-07-17T23:46:27.707Z,77.71
2018-07-17T23:48:56.041Z,79.00
2018-07-17T23:51:24.425Z,78.08
2018-07-17T23:53:52.762Z,78.17
2018-07-17T23:56:21.125Z,77.48
2018-07-17T23:58:49.561Z,77.77
